Decoded Metar for CZVL (Edmonton / Villeneuve in Canada) (IATA:N/A) | Meteo·Mobile Aviation Weather
aviador You're here:

CZVL Decoded Metar

Edmonton / Villeneuve in Canada
Report Time2020-02-22 21:00:00
UTC Time2020-02-22 21:28:25
Flight Rules vfr VFR
Wind300° at 13 Gusting to 20 kt
W.Decomp.*RWY 26: 11.8 kt HW 5.5 kt RCW
RWY 34: 7.5 kt HW 10.6 kt LCW
Visibility9999 m
Phenomena:N/A
Clouds:Broken 160 Hf
Expected CloudBase > 4,000 ft AGL from Temp-Dew spread
Ceiling16,000 ft
Temp01°C
Dew Point-9°C (48% RH)
AAT-6.6°C
QNH1007 hPa
Raw Report
METAR CZVL 222100Z AUTO 30013G20KT 9SM BKN160 01/M09 A2973 RMK SLP097=

Extra information for CZVL:More info

Metar Taf Metar & Taf Last 4 Metars F.Rules Stats Wind Profile Meteogram Temp Stats Metar ALERT Operation Metar Decoded Social comments